Time;durP1;ratioP1;P1;durP2;ratioP2;P2;SDS_P1;SDS_P2;PMS_P1;PMS_P2;Temp;Humidity;BMP_temperature;BMP_pressure;BME280_temperature;BME280_humidity;BME280_pressure;Samples;Min_cycle;Max_cycle;Signal;HPM_P1;HPM_P2
2021/10/27 00:01:23;;;;;;;3.93;2.53;;;12.00;99.90;;;;;;4964764;28;20286;-82
2021/10/27 00:03:49;;;;;;;5.37;3.10;;;12.00;99.90;;;;;;4965092;28;20207;-82
2021/10/27 00:06:15;;;;;;;5.60;3.40;;;12.00;99.90;;;;;;4950258;28;20179;-83
2021/10/27 00:08:40;;;;;;;4.03;2.95;;;12.00;99.90;;;;;;4965490;28;20202;-83
2021/10/27 00:11:06;;;;;;;5.50;3.00;;;12.00;99.90;;;;;;4949938;28;20187;-83
2021/10/27 00:13:32;;;;;;;4.60;3.17;;;12.00;99.90;;;;;;4981743;28;20206;-85
2021/10/27 00:15:58;;;;;;;5.70;3.00;;;12.10;99.90;;;;;;4964123;28;20458;-83
2021/10/27 00:18:23;;;;;;;3.73;2.80;;;12.10;99.90;;;;;;4962483;28;20178;-84
2021/10/27 00:20:50;;;;;;;9.77;4.15;;;12.10;99.90;;;;;;4978764;28;20223;-84
2021/10/27 00:23:15;;;;;;;4.43;3.20;;;12.10;99.90;;;;;;4978071;28;20255;-83
2021/10/27 00:25:41;;;;;;;4.77;3.30;;;12.10;99.90;;;;;;4960339;28;20179;-84
2021/10/27 00:28:07;;;;;;;6.90;3.80;;;12.10;99.90;;;;;;4995041;28;20190;-84
2021/10/27 00:30:32;;;;;;;6.53;3.17;;;12.10;99.90;;;;;;4980405;28;20179;-83
2021/10/27 00:32:58;;;;;;;7.60;2.90;;;12.10;99.90;;;;;;4979137;28;20182;-83
2021/10/27 00:35:24;;;;;;;3.43;3.07;;;12.10;99.90;;;;;;4961174;28;20262;-83
2021/10/27 00:37:49;;;;;;;3.67;2.75;;;12.10;99.90;;;;;;4978596;28;20182;-83
2021/10/27 00:40:15;;;;;;;4.47;3.87;;;12.10;99.90;;;;;;4961966;28;20203;-84
2021/10/27 00:42:41;;;;;;;4.60;3.00;;;12.10;99.90;;;;;;4963079;28;20230;-84
2021/10/27 00:45:07;;;;;;;4.10;3.45;;;12.10;99.90;;;;;;4962431;28;20294;-83
2021/10/27 00:47:33;;;;;;;4.30;3.25;;;12.10;99.90;;;;;;4982351;28;20172;-83
2021/10/27 00:49:59;;;;;;;4.20;3.03;;;12.10;99.90;;;;;;4952189;28;20184;-83
2021/10/27 00:52:25;;;;;;;12.60;3.27;;;12.00;99.90;;;;;;4969565;28;20183;-83
2021/10/27 00:54:51;;;;;;;4.80;3.73;;;12.00;99.90;;;;;;4953399;28;20610;-83
2021/10/27 00:57:21;;;;;;;6.10;4.13;;;12.00;99.90;;;;;;4953665;28;20183;-83
2021/10/27 00:59:47;;;;;;;6.10;3.55;;;12.00;99.90;;;;;;4985446;28;20457;-83
2021/10/27 01:02:14;;;;;;;4.05;3.55;;;12.00;99.90;;;;;;4986754;28;20218;-83
2021/10/27 01:04:40;;;;;;;4.82;3.22;;;12.00;99.90;;;;;;4987004;28;20191;-82
2021/10/27 01:07:06;;;;;;;5.30;2.95;;;12.00;99.90;;;;;;4968233;28;20179;-84
2021/10/27 01:09:33;;;;;;;4.20;3.27;;;12.00;99.90;;;;;;4951357;28;20207;-83
2021/10/27 01:11:59;;;;;;;4.30;3.47;;;12.00;99.90;;;;;;4953315;28;20180;-82
2021/10/27 01:14:40;;;;;;;4.88;3.28;;;12.00;99.90;;;;;;4985586;28;20203;-83
2021/10/27 01:17:07;;;;;;;6.65;3.30;;;12.00;99.90;;;;;;4968977;28;20182;-85
2021/10/27 01:19:56;;;;;;;4.38;3.30;;;12.00;99.90;;;;;;4951489;28;20194;-83
2021/10/27 01:22:24;;;;;;;5.22;3.15;;;12.00;99.90;;;;;;4968572;28;20171;-83
2021/10/27 01:24:50;;;;;;;6.10;3.72;;;12.00;99.90;;;;;;4951530;28;20195;-83
2021/10/27 01:27:16;;;;;;;4.90;2.90;;;12.00;99.90;;;;;;4951651;28;20171;-83
2021/10/27 01:29:42;;;;;;;4.97;3.37;;;12.00;99.90;;;;;;4950457;28;20610;-85
2021/10/27 01:32:08;;;;;;;4.88;3.20;;;12.00;99.90;;;;;;4932751;28;1013795;-84
2021/10/27 01:34:35;;;;;;;3.70;3.20;;;12.00;99.90;;;;;;5000042;28;20205;-85
2021/10/27 01:37:00;;;;;;;3.42;3.13;;;12.00;99.90;;;;;;4955942;28;20187;-84
2021/10/27 01:39:27;;;;;;;4.33;2.87;;;12.00;99.90;;;;;;4975604;28;20186;-84
2021/10/27 01:41:52;;;;;;;4.45;3.38;;;12.00;99.90;;;;;;5005935;28;20178;-84
2021/10/27 01:44:18;;;;;;;4.60;3.40;;;12.00;99.90;;;;;;5002936;28;20198;-84
2021/10/27 01:46:44;;;;;;;4.30;3.33;;;12.00;99.90;;;;;;5004727;28;20167;-85
2021/10/27 01:49:12;;;;;;;9.00;3.87;;;12.00;99.90;;;;;;4984575;28;20422;-85
2021/10/27 01:51:39;;;;;;;4.40;3.45;;;12.00;99.90;;;;;;4983599;28;20175;-84
2021/10/27 01:54:05;;;;;;;6.30;3.13;;;12.00;99.90;;;;;;4985800;28;20209;-85
2021/10/27 01:56:31;;;;;;;4.72;3.47;;;12.00;99.90;;;;;;5005158;28;20166;-85
2021/10/27 01:58:57;;;;;;;6.78;3.17;;;12.00;99.90;;;;;;4974306;28;20183;-86
2021/10/27 02:01:23;;;;;;;4.57;3.43;;;12.00;99.90;;;;;;4984834;28;20194;-86
2021/10/27 02:03:49;;;;;;;6.00;4.32;;;12.00;99.90;;;;;;4984942;28;20195;-85
2021/10/27 02:06:15;;;;;;;4.23;3.17;;;12.00;99.90;;;;;;5006034;28;20302;-84
2021/10/27 02:08:42;;;;;;;4.00;3.05;;;12.00;99.90;;;;;;5011563;28;20179;-85
2021/10/27 02:11:08;;;;;;;6.70;3.88;;;12.00;99.90;;;;;;5005050;28;20163;-84
2021/10/27 02:13:34;;;;;;;5.65;3.40;;;12.00;99.90;;;;;;5004979;28;20182;-85
2021/10/27 02:16:00;;;;;;;4.93;3.87;;;12.00;99.90;;;;;;4987624;28;20193;-84
2021/10/27 02:18:25;;;;;;;4.33;3.40;;;12.00;99.90;;;;;;5003762;28;20191;-86
2021/10/27 02:20:57;;;;;;;7.60;3.97;;;12.00;99.90;;;;;;5002855;28;20666;-85
2021/10/27 02:23:25;;;;;;;4.60;3.58;;;12.10;99.90;;;;;;5003460;28;20174;-84
2021/10/27 02:25:51;;;;;;;5.55;4.28;;;12.10;99.90;;;;;;5003546;28;20651;-87
2021/10/27 02:28:17;;;;;;;5.00;2.97;;;12.10;99.90;;;;;;4985936;28;20206;-85
2021/10/27 02:30:43;;;;;;;6.07;3.55;;;12.10;99.90;;;;;;5005402;28;20214;-85
2021/10/27 02:33:09;;;;;;;4.80;3.20;;;12.10;99.90;;;;;;5009434;28;20163;-86
2021/10/27 02:35:34;;;;;;;4.80;3.83;;;12.10;99.90;;;;;;5004643;28;20511;-85
2021/10/27 02:38:00;;;;;;;4.27;3.13;;;12.10;99.90;;;;;;5005873;28;20175;-85
2021/10/27 02:40:26;;;;;;;4.17;3.60;;;12.10;99.90;;;;;;4986901;28;20285;-87
2021/10/27 02:42:52;;;;;;;7.43;3.50;;;12.10;99.90;;;;;;5004246;28;20190;-85
2021/10/27 02:45:18;;;;;;;7.13;4.10;;;12.10;99.90;;;;;;4986583;28;20217;-86
2021/10/27 02:47:44;;;;;;;4.37;3.63;;;12.10;99.90;;;;;;5002383;28;20661;-84
2021/10/27 02:50:11;;;;;;;6.00;3.22;;;12.10;99.90;;;;;;5004804;28;20410;-84
2021/10/27 02:52:37;;;;;;;5.22;3.70;;;12.10;99.90;;;;;;4986477;28;20190;-85
2021/10/27 02:55:03;;;;;;;4.80;3.60;;;12.10;99.90;;;;;;5003247;28;20194;-85
2021/10/27 02:57:29;;;;;;;3.70;2.90;;;12.10;99.90;;;;;;4986810;28;20420;-85
2021/10/27 02:59:54;;;;;;;4.67;3.13;;;12.10;99.90;;;;;;5005175;28;20461;-85
2021/10/27 03:02:20;;;;;;;5.03;3.03;;;12.00;99.90;;;;;;5004439;28;20182;-86
2021/10/27 03:04:46;;;;;;;7.20;3.70;;;12.10;99.90;;;;;;5003557;28;20198;-86
2021/10/27 03:07:14;;;;;;;6.55;3.50;;;12.10;99.90;;;;;;4988348;28;20653;-85
2021/10/27 03:09:40;;;;;;;5.93;3.65;;;12.00;99.90;;;;;;4989709;28;20202;-85
2021/10/27 03:12:06;;;;;;;4.93;3.50;;;12.00;99.90;;;;;;4987464;28;20613;-85
2021/10/27 03:14:32;;;;;;;8.43;3.33;;;12.10;99.90;;;;;;5004778;28;20186;-85
2021/10/27 03:17:00;;;;;;;5.63;3.30;;;12.10;99.90;;;;;;4973489;28;20202;-86
2021/10/27 03:19:26;;;;;;;7.63;4.03;;;12.10;99.90;;;;;;4989996;28;20179;-87
2021/10/27 03:21:55;;;;;;;5.23;4.10;;;12.10;99.90;;;;;;5007342;28;20243;-85
2021/10/27 03:24:20;;;;;;;4.63;3.28;;;12.10;99.90;;;;;;4990455;28;20194;-85
2021/10/27 03:26:46;;;;;;;4.97;3.53;;;12.10;99.90;;;;;;4990467;28;20171;-85
2021/10/27 03:29:12;;;;;;;6.10;4.60;;;12.10;99.90;;;;;;5006990;28;20171;-86
2021/10/27 03:31:37;;;;;;;5.60;4.27;;;12.00;99.90;;;;;;5005853;28;20234;-85
2021/10/27 03:34:03;;;;;;;4.10;3.17;;;12.00;99.90;;;;;;5006784;28;20191;-86
2021/10/27 03:36:29;;;;;;;5.60;3.80;;;12.00;99.90;;;;;;4985908;28;20206;-85
2021/10/27 03:38:55;;;;;;;7.15;4.82;;;12.00;99.90;;;;;;4988213;28;20662;-84
2021/10/27 03:41:21;;;;;;;4.30;3.83;;;12.00;99.90;;;;;;5005552;28;20191;-85
2021/10/27 03:43:47;;;;;;;4.77;2.77;;;12.10;99.90;;;;;;4972710;28;20449;-85
2021/10/27 03:46:12;;;;;;;6.57;4.15;;;12.00;99.90;;;;;;4999875;28;20181;-85
2021/10/27 03:48:39;;;;;;;11.83;5.10;;;12.00;99.90;;;;;;4986667;28;20245;-85
2021/10/27 03:51:05;;;;;;;4.40;3.80;;;12.00;99.90;;;;;;4984043;28;20485;-83
2021/10/27 03:53:31;;;;;;;6.97;4.13;;;12.00;99.90;;;;;;5001266;28;21503;-83
2021/10/27 03:55:56;;;;;;;8.97;4.87;;;12.00;99.90;;;;;;4982581;28;20171;-83
2021/10/27 03:58:22;;;;;;;8.83;4.20;;;12.00;99.90;;;;;;4965659;28;20567;-83
2021/10/27 04:00:48;;;;;;;7.23;4.37;;;12.00;99.90;;;;;;5002106;28;20220;-82
2021/10/27 04:03:20;;;;;;;5.57;4.57;;;11.90;99.90;;;;;;4997050;28;20179;-82
2021/10/27 04:05:46;;;;;;;8.35;4.57;;;11.90;99.90;;;;;;4984143;28;20191;-84
2021/10/27 04:08:12;;;;;;;5.70;3.88;;;11.90;99.90;;;;;;5000405;28;20178;-84
2021/10/27 04:10:37;;;;;;;6.70;3.87;;;11.90;99.90;;;;;;4981318;28;20233;-85
2021/10/27 04:13:03;;;;;;;4.30;3.90;;;11.90;99.90;;;;;;5000119;28;20179;-87
2021/10/27 04:15:29;;;;;;;4.13;3.70;;;11.90;99.90;;;;;;5006267;28;20205;-86
2021/10/27 04:17:54;;;;;;;6.63;5.10;;;11.90;99.90;;;;;;5004808;28;20167;-85
2021/10/27 04:20:20;;;;;;;6.60;4.27;;;11.90;99.90;;;;;;5003692;28;20645;-85
2021/10/27 04:22:45;;;;;;;5.77;3.90;;;11.90;99.90;;;;;;4984614;28;20183;-85
2021/10/27 04:25:14;;;;;;;5.80;4.00;;;11.90;99.90;;;;;;4984126;28;20538;-86
2021/10/27 04:27:40;;;;;;;12.30;4.43;;;11.90;99.90;;;;;;4982713;28;20550;-85
2021/10/27 04:30:08;;;;;;;4.50;3.60;;;11.90;99.90;;;;;;5001986;28;20174;-86
2021/10/27 04:32:34;;;;;;;9.63;4.40;;;11.90;99.90;;;;;;4997297;28;20422;-84
2021/10/27 04:34:59;;;;;;;8.27;4.60;;;12.00;99.90;;;;;;4995762;28;20195;-83
2021/10/27 04:37:26;;;;;;;8.10;3.73;;;12.00;99.90;;;;;;5001962;28;20217;-84
2021/10/27 04:39:52;;;;;;;5.22;4.18;;;12.00;99.90;;;;;;5009817;28;20203;-83
2021/10/27 04:42:17;;;;;;;4.93;4.03;;;12.00;99.90;;;;;;4998689;28;20213;-84
2021/10/27 04:44:43;;;;;;;6.60;4.80;;;12.10;99.90;;;;;;4983256;28;20202;-83
2021/10/27 04:47:11;;;;;;;10.47;4.33;;;12.10;99.90;;;;;;4996788;28;20182;-84
2021/10/27 04:49:37;;;;;;;7.50;4.72;;;12.10;99.90;;;;;;4998954;28;20185;-84
2021/10/27 04:52:03;;;;;;;5.90;4.43;;;12.10;99.90;;;;;;4996665;28;20198;-84
2021/10/27 04:54:28;;;;;;;6.20;3.78;;;12.10;99.90;;;;;;4998050;28;20194;-86
2021/10/27 04:56:54;;;;;;;6.50;3.53;;;12.10;99.90;;;;;;4999463;28;20266;-83
2021/10/27 04:59:19;;;;;;;5.57;4.23;;;12.10;99.90;;;;;;4985837;28;20189;-83
2021/10/27 05:01:46;;;;;;;6.03;4.10;;;12.10;99.90;;;;;;4981305;28;20233;-83
2021/10/27 05:04:13;;;;;;;6.75;3.90;;;12.10;99.90;;;;;;4978818;28;20186;-85
2021/10/27 05:06:38;;;;;;;8.48;3.88;;;12.10;99.90;;;;;;4997907;28;20257;-84
2021/10/27 05:09:04;;;;;;;5.30;3.33;;;12.10;99.90;;;;;;4997030;28;20229;-83
2021/10/27 05:11:29;;;;;;;9.70;4.33;;;12.10;99.90;;;;;;4984457;28;20167;-84
2021/10/27 05:13:55;;;;;;;7.87;4.57;;;12.10;99.90;;;;;;5003274;28;20218;-84
2021/10/27 05:16:21;;;;;;;7.67;4.10;;;12.20;99.90;;;;;;4979815;28;20183;-84
2021/10/27 05:18:47;;;;;;;9.07;4.33;;;12.20;99.90;;;;;;4997003;28;20417;-85
2021/10/27 05:21:12;;;;;;;5.90;3.73;;;12.20;99.90;;;;;;4992987;28;20199;-82
2021/10/27 05:23:38;;;;;;;3.60;3.30;;;12.10;99.90;;;;;;4992409;28;20197;-84
2021/10/27 05:26:04;;;;;;;8.10;3.97;;;12.10;99.90;;;;;;4995150;28;20230;-84
2021/10/27 05:28:30;;;;;;;5.95;3.33;;;12.20;99.90;;;;;;4995680;28;20650;-84
2021/10/27 05:30:55;;;;;;;4.78;3.80;;;12.20;99.90;;;;;;4995448;28;20201;-82
2021/10/27 05:33:21;;;;;;;4.00;3.53;;;12.20;99.90;;;;;;5000832;28;20175;-84
2021/10/27 05:35:47;;;;;;;6.03;4.17;;;12.10;99.90;;;;;;4989538;28;20182;-84
2021/10/27 05:38:23;;;;;;;5.67;4.03;;;12.10;99.90;;;;;;4982648;28;20193;-86
2021/10/27 05:40:49;;;;;;;6.55;3.22;;;12.10;99.90;;;;;;4983151;28;20210;-85
2021/10/27 05:43:15;;;;;;;8.10;3.33;;;12.20;99.90;;;;;;4970183;28;20744;-87
2021/10/27 05:45:41;;;;;;;5.55;3.95;;;12.20;99.90;;;;;;5019656;28;20621;-86
2021/10/27 05:48:08;;;;;;;7.95;3.15;;;12.20;99.90;;;;;;5018909;28;20169;-85
2021/10/27 05:50:39;;;;;;;7.00;4.10;;;12.20;99.90;;;;;;5000399;28;20225;-83
2021/10/27 05:55:49;;;;;;;9.10;3.83;;;12.20;99.90;;;;;;4985908;28;20474;-83
2021/10/27 05:58:15;;;;;;;8.20;3.30;;;12.20;99.90;;;;;;5011559;28;20170;-82
2021/10/27 06:00:42;;;;;;;6.55;3.75;;;12.30;99.90;;;;;;5020868;28;20297;-82
2021/10/27 06:03:08;;;;;;;12.73;5.10;;;12.30;99.90;;;;;;5014582;28;20178;-84
2021/10/27 06:05:34;;;;;;;4.90;3.20;;;12.30;99.90;;;;;;5004721;28;20209;-84
2021/10/27 06:08:00;;;;;;;4.78;3.33;;;12.30;99.90;;;;;;4984868;28;20181;-85
2021/10/27 06:10:26;;;;;;;4.20;3.03;;;12.30;99.90;;;;;;4988058;28;20661;-84
2021/10/27 06:12:57;;;;;;;10.02;3.75;;;12.30;99.90;;;;;;5005288;28;20173;-84
2021/10/27 06:15:23;;;;;;;5.47;3.85;;;12.30;99.90;;;;;;5023962;28;20198;-83
2021/10/27 06:17:52;;;;;;;8.68;3.85;;;12.30;99.90;;;;;;5025469;28;20177;-84
2021/10/27 06:20:21;;;;;;;4.38;3.45;;;12.30;99.90;;;;;;4991116;28;20221;-86
2021/10/27 06:22:49;;;;;;;5.25;3.90;;;12.30;99.90;;;;;;4992674;28;20170;-86
2021/10/27 06:25:15;;;;;;;6.95;3.53;;;12.30;99.90;;;;;;5011414;28;20198;-85
2021/10/27 06:27:46;;;;;;;9.48;4.30;;;12.40;99.90;;;;;;4967427;28;20170;-87
2021/10/27 06:30:18;;;;;;;8.75;4.00;;;12.40;99.90;;;;;;4984857;28;20175;-86
2021/10/27 06:36:14;;;;;;;;;;;;;;;;;;;;;
2021/10/27 06:46:52;;;;;;;4.95;2.90;;;12.40;99.90;;;;;;4987292;28;20255;-86
2021/10/27 06:49:18;;;;;;;4.65;3.38;;;12.40;99.90;;;;;;5008715;28;20174;-88
2021/10/27 06:51:46;;;;;;;4.97;2.80;;;12.40;99.90;;;;;;5014579;28;20245;-87
2021/10/27 06:54:12;;;;;;;4.47;3.30;;;12.50;99.90;;;;;;4981713;28;20208;-86
2021/10/27 06:56:38;;;;;;;4.83;3.17;;;12.50;99.90;;;;;;4992043;28;20186;-83
2021/10/27 07:04:45;;;;;;;4.10;3.20;;;13.20;99.90;;;;;;4975638;28;20957;-82
2021/10/27 07:15:36;;;;;;;7.07;3.33;;;13.20;99.90;;;;;;5001730;28;20209;-85
2021/10/27 07:18:03;;;;;;;6.80;3.88;;;13.20;99.90;;;;;;4967564;28;20187;-86
2021/10/27 07:20:29;;;;;;;4.88;3.40;;;13.30;99.90;;;;;;5001695;28;20202;-87
2021/10/27 07:25:41;;;;;;;5.00;2.80;;;13.20;99.90;;;;;;5443406;22;20264;-86
2021/10/27 07:28:07;;;;;;;5.55;3.00;;;13.30;99.90;;;;;;4984790;28;20177;-87
2021/10/27 07:30:33;;;;;;;4.40;3.20;;;13.30;99.90;;;;;;5020445;28;20238;-86
2021/10/27 07:32:59;;;;;;;5.27;2.87;;;13.40;99.90;;;;;;5009239;28;20424;-87
2021/10/27 07:40:52;;;;;;;5.53;2.95;;;13.70;99.90;;;;;;5007357;28;20263;-87
2021/10/27 07:43:21;;;;;;;5.53;3.28;;;13.80;99.90;;;;;;4988796;28;20175;-87
2021/10/27 07:45:48;;;;;;;3.95;2.78;;;13.90;99.90;;;;;;4982456;28;20185;-89
2021/10/27 07:48:17;;;;;;;6.03;3.45;;;13.90;99.90;;;;;;4979833;28;20179;-88
2021/10/27 07:50:45;;;;;;;8.00;3.47;;;13.90;99.90;;;;;;4980904;28;20176;-87
2021/10/27 07:53:26;;;;;;;3.20;2.65;;;13.90;99.90;;;;;;4982522;28;20766;-88
2021/10/27 07:55:54;;;;;;;3.38;3.03;;;13.90;99.90;;;;;;4981180;28;20611;-89
2021/10/27 07:58:21;;;;;;;3.47;3.00;;;13.70;99.90;;;;;;4980614;28;20179;-87
2021/10/27 08:00:50;;;;;;;5.45;2.45;;;13.60;99.90;;;;;;4997373;28;20199;-88
2021/10/27 08:03:19;;;;;;;4.38;2.33;;;13.70;99.90;;;;;;4962028;28;20181;-88
2021/10/27 08:05:51;;;;;;;3.65;2.97;;;13.80;99.90;;;;;;4988285;28;20178;-87
2021/10/27 08:08:33;;;;;;;2.85;2.08;;;13.90;99.90;;;;;;4999415;28;20240;-88
2021/10/27 08:10:59;;;;;;;5.13;2.83;;;13.90;99.90;;;;;;4981857;28;20599;-88
2021/10/27 08:13:28;;;;;;;6.95;3.15;;;13.90;99.90;;;;;;4980333;28;20183;-89
2021/10/27 08:15:56;;;;;;;3.88;2.30;;;13.90;99.90;;;;;;4989386;28;20171;-89
2021/10/27 08:18:27;;;;;;;4.05;2.70;;;13.70;99.90;;;;;;4985958;28;20190;-87
2021/10/27 08:20:53;;;;;;;3.15;2.83;;;13.60;99.90;;;;;;4983964;28;20253;-87
2021/10/27 08:23:20;;;;;;;10.50;3.30;;;13.50;99.90;;;;;;4993207;28;20190;-88
2021/10/27 08:25:51;;;;;;;4.30;2.80;;;13.40;99.90;;;;;;4977829;28;20453;-88
2021/10/27 08:28:22;;;;;;;5.18;2.28;;;13.50;99.90;;;;;;5001385;28;20562;-84
2021/10/27 08:31:05;;;;;;;3.88;2.70;;;13.40;99.90;;;;;;5004279;28;20175;-88
2021/10/27 08:35:56;;;;;;;3.03;2.73;;;13.40;99.90;;;;;;5008376;28;20650;-88
2021/10/27 08:38:22;;;;;;;4.03;2.77;;;13.40;99.90;;;;;;4987688;28;20729;-88
2021/10/27 08:40:51;;;;;;;3.30;2.27;;;13.40;99.90;;;;;;4999923;28;20203;-88
2021/10/27 08:43:17;;;;;;;3.10;2.50;;;13.40;99.90;;;;;;4986696;28;20187;-88
2021/10/27 08:46:06;;;;;;;5.97;3.10;;;13.40;99.90;;;;;;5005298;28;20182;-87
2021/10/27 08:48:36;;;;;;;4.03;2.38;;;13.40;99.90;;;;;;4980191;28;20287;-88
2021/10/27 08:51:07;;;;;;;3.03;2.70;;;13.50;99.90;;;;;;4984741;28;20197;-87
2021/10/27 08:53:37;;;;;;;7.30;3.17;;;13.50;99.90;;;;;;4999558;28;20224;-89
2021/10/27 08:56:05;;;;;;;3.90;2.20;;;13.50;99.90;;;;;;4980988;28;20187;-87
2021/10/27 08:58:42;;;;;;;4.95;2.33;;;13.60;99.90;;;;;;4982180;28;20185;-86
2021/10/27 09:01:19;;;;;;;4.15;2.58;;;13.70;99.90;;;;;;4964629;28;20211;-88
2021/10/27 09:06:44;;;;;;;4.50;3.38;;;13.60;99.90;;;;;;5001986;28;20181;-86
2021/10/27 09:41:43;;;;;;;4.22;3.15;;;13.90;99.90;;;;;;4980475;28;20207;-87
2021/10/27 10:06:28;;;;;;;4.15;2.97;;;14.30;99.90;;;;;;5003237;28;20685;-87
2021/10/27 10:08:55;;;;;;;3.10;2.50;;;14.40;99.90;;;;;;4984498;28;20169;-88
2021/10/27 10:11:24;;;;;;;11.83;2.80;;;14.50;99.90;;;;;;4986576;28;20464;-85
2021/10/27 10:13:52;;;;;;;5.65;2.78;;;14.50;99.90;;;;;;4999444;28;20570;-88
2021/10/27 10:16:21;;;;;;;3.17;2.38;;;14.50;99.90;;;;;;4997727;28;20189;-87
2021/10/27 10:18:59;;;;;;;4.95;3.03;;;14.50;99.90;;;;;;4985233;28;20216;-87
2021/10/27 10:21:28;;;;;;;7.37;2.70;;;14.30;99.90;;;;;;4983830;28;20195;-87
2021/10/27 10:24:20;;;;;;;5.63;2.95;;;14.30;99.90;;;;;;5009685;28;20893;-87
2021/10/27 10:26:48;;;;;;;6.93;2.47;;;14.40;99.90;;;;;;4964889;28;20223;-87
2021/10/27 10:29:59;;;;;;;9.50;3.65;;;14.40;99.90;;;;;;4965786;28;20475;-87
2021/10/27 10:32:36;;;;;;;4.90;2.45;;;14.40;99.90;;;;;;4979339;28;20188;-89
2021/10/27 10:35:17;;;;;;;2.80;2.40;;;14.40;99.90;;;;;;5002314;28;20279;-87
2021/10/27 10:38:18;;;;;;;4.10;2.50;;;14.30;99.90;;;;;;4976166;28;20192;-88
2021/10/27 10:58:35;;;;;;;6.78;3.00;;;14.30;99.90;;;;;;5009063;28;20271;-86
2021/10/27 11:02:16;;;;;;;5.10;3.15;;;14.30;99.90;;;;;;5004544;28;20219;-86
2021/10/27 11:41:10;;;;;;;5.72;2.83;;;14.60;99.90;;;;;;5009269;28;20295;-88
2021/10/27 11:43:56;;;;;;;4.07;2.47;;;14.60;99.90;;;;;;4996033;28;20219;-86
2021/10/27 11:46:27;;;;;;;4.47;2.83;;;14.50;99.90;;;;;;4993046;28;20187;-88
2021/10/27 11:49:09;;;;;;;7.57;2.95;;;14.60;99.90;;;;;;4986829;28;20441;-88
2021/10/27 11:51:37;;;;;;;3.60;2.58;;;14.60;99.90;;;;;;4986859;28;20168;-87
2021/10/27 11:54:11;;;;;;;3.38;2.70;;;14.70;99.90;;;;;;4987507;28;20544;-88
2021/10/27 12:00:43;;;;;;;5.80;2.85;;;14.80;99.90;;;;;;4904586;29;20459;-88
2021/10/27 12:06:33;;;;;;;;;;;;;;;;;;;;;
2021/10/27 12:12:59;;;;;;;6.30;2.60;;;14.60;99.90;;;;;;5012101;28;20831;-89
2021/10/27 12:19:08;;;;;;;3.47;3.10;;;14.50;99.90;;;;;;4918775;29;20460;-88
2021/10/27 12:21:35;;;;;;;5.35;3.03;;;14.60;99.90;;;;;;4980851;28;20467;-88
2021/10/27 12:28:19;;;;;;;5.10;2.73;;;14.70;99.90;;;;;;4959911;28;20505;-88
2021/10/27 12:30:46;;;;;;;3.10;2.50;;;14.70;99.90;;;;;;4920095;28;20831;-88
2021/10/27 12:33:15;;;;;;;3.13;2.60;;;14.70;99.90;;;;;;4963754;28;20432;-86
2021/10/27 12:35:40;;;;;;;3.53;2.70;;;14.80;99.90;;;;;;4980131;28;20946;-85
2021/10/27 12:38:20;;;;;;;2.90;2.30;;;14.80;99.90;;;;;;4997366;28;20492;-86
2021/10/27 12:40:51;;;;;;;4.00;2.63;;;14.80;99.90;;;;;;4977616;28;20208;-87
2021/10/27 12:43:20;;;;;;;5.63;2.83;;;14.70;99.90;;;;;;4982835;28;20421;-85
2021/10/27 12:45:51;;;;;;;3.60;2.57;;;14.80;99.90;;;;;;4976899;28;20441;-87
2021/10/27 12:48:34;;;;;;;4.77;2.60;;;14.80;99.90;;;;;;4997969;28;20428;-86
2021/10/27 12:51:05;;;;;;;3.27;2.40;;;14.80;99.90;;;;;;5002877;28;20478;-87
2021/10/27 12:53:45;;;;;;;3.27;2.67;;;14.80;99.90;;;;;;4980332;28;20432;-88
2021/10/27 12:56:30;;;;;;;2.50;2.07;;;14.80;99.90;;;;;;4984117;28;20432;-89
2021/10/27 12:59:11;;;;;;;5.80;2.70;;;14.80;99.90;;;;;;4983719;28;20452;-87
2021/10/27 13:04:41;;;;;;;2.30;1.93;;;14.80;99.90;;;;;;4988554;28;20441;-86
2021/10/27 13:07:24;;;;;;;3.27;2.80;;;14.80;99.90;;;;;;4984829;28;20425;-87
2021/10/27 13:10:07;;;;;;;4.00;2.70;;;14.80;99.90;;;;;;4983401;28;20793;-86
2021/10/27 13:15:31;;;;;;;3.80;2.43;;;14.80;99.90;;;;;;4973159;28;20457;-86
2021/10/27 13:31:40;;;;;;;2.77;2.20;;;14.80;99.90;;;;;;5002258;28;20450;-86
2021/10/27 13:34:08;;;;;;;3.17;2.23;;;14.80;99.90;;;;;;4985984;28;20447;-86
2021/10/27 13:36:33;;;;;;;3.87;2.70;;;14.80;99.90;;;;;;4987231;28;20429;-87
2021/10/27 13:39:04;;;;;;;2.57;2.30;;;14.70;99.90;;;;;;4986619;28;20431;-89
2021/10/27 13:41:30;;;;;;;4.37;2.80;;;14.70;99.90;;;;;;5002148;28;20197;-87
2021/10/27 13:44:19;;;;;;;3.50;3.20;;;14.80;99.90;;;;;;4996366;28;20455;-89
2021/10/27 15:20:13;;;;;;;4.07;3.10;;;14.60;99.90;;;;;;5005026;28;20406;-89
2021/10/27 15:25:36;;;;;;;4.87;3.63;;;14.60;99.90;;;;;;5016703;28;20433;-88
2021/10/27 15:30:47;;;;;;;3.87;2.60;;;14.50;99.90;;;;;;5018631;28;20423;-90
2021/10/27 15:52:44;;;;;;;4.23;3.63;;;14.50;99.90;;;;;;5022115;28;20415;-88
2021/10/27 15:55:20;;;;;;;7.38;4.10;;;14.50;99.90;;;;;;4999606;28;20435;-88
2021/10/27 15:57:46;;;;;;;4.03;3.20;;;14.50;99.90;;;;;;4998774;28;20187;-87
2021/10/27 16:00:15;;;;;;;7.60;3.17;;;14.50;99.90;;;;;;5002453;28;20897;-86
2021/10/27 16:02:41;;;;;;;5.30;3.58;;;14.40;99.90;;;;;;5005077;28;20490;-86
2021/10/27 16:05:08;;;;;;;6.87;3.43;;;14.40;99.90;;;;;;5000181;28;20215;-87
2021/10/27 16:07:35;;;;;;;4.87;4.00;;;14.40;99.90;;;;;;5020175;28;20172;-87
2021/10/27 16:10:12;;;;;;;4.90;3.17;;;14.40;99.90;;;;;;5005585;28;20447;-87
2021/10/27 16:12:38;;;;;;;4.40;3.83;;;14.40;99.90;;;;;;5003637;28;20415;-89
2021/10/27 16:15:17;;;;;;;4.63;3.33;;;14.40;99.90;;;;;;5003300;28;20971;-87
2021/10/27 16:17:43;;;;;;;4.10;3.00;;;14.40;99.90;;;;;;5018148;28;20520;-88
2021/10/27 16:20:10;;;;;;;4.80;3.70;;;14.40;99.90;;;;;;5018691;28;20547;-87
2021/10/27 16:22:38;;;;;;;5.37;4.00;;;14.40;99.90;;;;;;5001717;28;20415;-87
2021/10/27 16:25:07;;;;;;;5.87;3.73;;;14.40;99.90;;;;;;5002315;28;20809;-87
2021/10/27 16:27:33;;;;;;;4.33;3.17;;;14.40;99.90;;;;;;4973547;28;20522;-86
2021/10/27 16:29:59;;;;;;;6.50;4.50;;;14.40;99.90;;;;;;4998721;28;20765;-87
2021/10/27 16:32:32;;;;;;;6.50;4.30;;;14.50;99.90;;;;;;4987393;28;20446;-90
2021/10/27 16:35:00;;;;;;;5.03;3.30;;;14.40;99.90;;;;;;5000477;28;20205;-89
2021/10/27 16:37:29;;;;;;;7.50;3.80;;;14.40;99.90;;;;;;5004570;28;20430;-87
2021/10/27 16:39:55;;;;;;;5.33;2.93;;;14.40;99.90;;;;;;5021437;28;20434;-90
2021/10/27 16:42:22;;;;;;;4.40;3.60;;;14.50;99.90;;;;;;5005114;28;20415;-89
2021/10/27 16:44:51;;;;;;;5.17;3.93;;;14.50;99.90;;;;;;5005124;28;20446;-88
2021/10/27 16:47:20;;;;;;;6.15;3.83;;;14.40;99.90;;;;;;5022222;28;20458;-88
2021/10/27 16:50:03;;;;;;;5.73;3.90;;;14.40;99.90;;;;;;5027003;28;20175;-91
2021/10/27 16:52:29;;;;;;;7.10;3.80;;;14.50;99.90;;;;;;5000423;28;20411;-89
2021/10/27 16:54:56;;;;;;;5.37;4.70;;;14.60;99.90;;;;;;5006941;28;21004;-86
2021/10/27 16:57:22;;;;;;;3.93;3.13;;;14.70;99.90;;;;;;5007393;28;20256;-88
2021/10/27 16:59:59;;;;;;;3.97;3.20;;;14.80;99.90;;;;;;5023628;28;20422;-87
2021/10/27 17:02:25;;;;;;;5.97;3.73;;;14.80;99.90;;;;;;5006102;28;20486;-86
2021/10/27 17:04:50;;;;;;;4.97;4.03;;;14.80;99.90;;;;;;5027414;28;20430;-87
2021/10/27 17:07:16;;;;;;;6.37;3.70;;;14.80;99.90;;;;;;5026259;28;20178;-87
2021/10/27 17:09:42;;;;;;;5.57;3.70;;;14.90;99.90;;;;;;4994634;28;20201;-86
2021/10/27 17:12:11;;;;;;;4.97;3.43;;;14.90;99.90;;;;;;5024348;28;20180;-87
2021/10/27 17:14:47;;;;;;;5.00;4.20;;;14.90;99.90;;;;;;5002501;28;20686;-88
2021/10/27 17:17:13;;;;;;;9.70;5.60;;;14.90;99.90;;;;;;5005448;28;20451;-87
2021/10/27 17:19:41;;;;;;;9.13;5.50;;;14.80;99.90;;;;;;5010136;28;20500;-88
2021/10/27 17:22:11;;;;;;;9.53;5.07;;;14.80;99.90;;;;;;5000581;28;20453;-88
2021/10/27 17:24:43;;;;;;;8.67;6.33;;;14.80;99.90;;;;;;4983520;28;20879;-88
2021/10/27 17:27:11;;;;;;;7.20;4.73;;;14.80;99.90;;;;;;4996073;28;20423;-87
2021/10/27 17:29:37;;;;;;;7.57;5.50;;;14.80;99.90;;;;;;4984350;28;20421;-88
2021/10/27 17:32:06;;;;;;;8.00;4.80;;;14.70;99.90;;;;;;5002951;28;20446;-87
2021/10/27 17:34:33;;;;;;;5.93;4.87;;;14.70;99.90;;;;;;5003589;28;20193;-85
2021/10/27 17:37:00;;;;;;;7.60;5.07;;;14.70;99.90;;;;;;5022955;28;20424;-85
2021/10/27 17:39:26;;;;;;;7.10;4.40;;;14.70;99.90;;;;;;5024447;28;20493;-85
2021/10/27 17:41:56;;;;;;;6.83;4.33;;;14.70;99.90;;;;;;5005008;28;20468;-84
2021/10/27 17:44:22;;;;;;;4.73;3.87;;;14.70;99.90;;;;;;5003214;28;20504;-85
2021/10/27 17:46:59;;;;;;;6.57;4.70;;;14.70;99.90;;;;;;5003874;28;20492;-85
2021/10/27 17:49:46;;;;;;;5.93;4.07;;;14.70;99.90;;;;;;4970414;28;20432;-85
2021/10/27 18:00:17;;;;;;;5.57;4.43;;;14.60;99.90;;;;;;5024225;28;20454;-86
2021/10/27 18:02:44;;;;;;;7.07;4.23;;;14.60;99.90;;;;;;5022832;28;20459;-85
2021/10/27 18:05:10;;;;;;;6.90;4.27;;;14.60;99.90;;;;;;5003145;28;20231;-86
2021/10/27 18:07:37;;;;;;;6.90;4.33;;;14.60;99.90;;;;;;5020973;28;20413;-86
2021/10/27 18:10:06;;;;;;;10.40;5.80;;;14.60;99.90;;;;;;5020614;28;20180;-87
2021/10/27 18:12:32;;;;;;;5.90;3.93;;;14.60;99.90;;;;;;5003374;28;20410;-85